KHGR/HGR METAR and TAF weather

Enter ICAO airport designator
Station Type Date Time Source
KHGR METAR 2020/09/21 08:53 UTC NOAA

KHGR 210853Z AUTO 00000KT 10SM CLR 08/01 A3054 RMK AO2 SLP351 T00830006 58000 TSNO


Station Type Date Time Source
KHGR Decoded METAR 2020/09/21 08:53 UTC NOAA

HAGERSTOWN REGIONAL AIRPORT, MD, United States (KHGR) 39-42N 077-44W 224M
Sep 21, 2020 - 04:53 AM EDT / 2020.09.21 0853 UTC
Wind: Calm:0
Visibility: 10 mile(s):0
Sky conditions: clear
Temperature: 46.9 F (8.3 C)
Dew Point: 33.1 F (0.6 C)
Relative Humidity: 58%
Pressure (altimeter): 30.54 in. Hg (1034 hPa)
Pressure tendency: 0.00 inches (0.0 hPa) lower than three hours ago
ob: KHGR 210853Z AUTO 00000KT 10SM CLR 08/01 A3054 RMK AO2 SLP351 T00830006 58000 TSNO
cycle: 9

Station Type Date Time Source
KHGR TAF UTC NOAA

Error!

Example: see airport list